createdAt,value
2022-11-17T00:00:33.458Z,81.09
2022-11-17T00:01:33.443Z,81.09
2022-11-17T00:02:33.473Z,81.47
2022-11-17T00:03:33.926Z,81.23
2022-11-17T00:04:33.467Z,81.02
2022-11-17T00:05:33.426Z,80.71
2022-11-17T00:06:33.436Z,80.75
2022-11-17T00:07:33.457Z,81.02
2022-11-17T00:08:33.482Z,81.02
2022-11-17T00:09:33.360Z,80.91
2022-11-17T00:10:33.401Z,81.02
2022-11-17T00:11:33.345Z,81.23
2022-11-17T00:12:33.367Z,80.91
2022-11-17T00:13:33.715Z,81.33
2022-11-17T00:14:33.361Z,80.61
2022-11-17T00:15:33.296Z,81.19
2022-11-17T00:16:33.286Z,81.43
2022-11-17T00:17:33.283Z,80.19
2022-11-17T00:18:33.317Z,80.88
2022-11-17T00:19:33.247Z,79.75
2022-11-17T00:20:33.247Z,80.30
2022-11-17T00:21:33.229Z,80.88
2022-11-17T00:22:33.263Z,80.67
2022-11-17T00:23:33.573Z,80.05
2022-11-17T00:24:33.351Z,80.30
2022-11-17T00:25:33.210Z,79.85
2022-11-17T00:26:33.169Z,79.95
2022-11-17T00:27:33.171Z,79.75
2022-11-17T00:28:34.667Z,80.05
2022-11-17T00:29:35.323Z,80.36
2022-11-17T00:30:33.190Z,80.91
2022-11-17T00:31:33.111Z,81.02
2022-11-17T00:32:33.152Z,80.95
2022-11-17T00:33:33.300Z,80.85
2022-11-17T00:34:33.133Z,81.20
2022-11-17T00:35:33.083Z,81.47
2022-11-17T00:36:33.112Z,80.75
2022-11-17T00:37:33.106Z,80.75
2022-11-17T00:38:33.083Z,80.81
2022-11-17T00:39:33.027Z,80.71
2022-11-17T00:40:33.033Z,81.02
2022-11-17T00:41:33.007Z,80.30
2022-11-17T00:42:33.035Z,80.51
2022-11-17T00:43:33.481Z,80.91
2022-11-17T00:44:32.982Z,80.30
2022-11-17T00:45:32.967Z,80.23
2022-11-17T00:46:32.967Z,80.51
2022-11-17T00:47:33.000Z,80.61
2022-11-17T00:48:32.928Z,79.99
2022-11-17T00:49:32.923Z,79.85
2022-11-17T00:50:32.903Z,79.64
2022-11-17T00:51:32.956Z,79.68
2022-11-17T00:52:32.918Z,79.88
2022-11-17T00:53:33.337Z,79.88
2022-11-17T00:54:32.909Z,79.93
2022-11-17T00:55:32.946Z,79.79
2022-11-17T00:56:32.853Z,80.19
2022-11-17T00:57:32.852Z,79.93
2022-11-17T00:58:32.817Z,79.99
2022-11-17T00:59:32.853Z,79.99
2022-11-17T01:00:32.859Z,79.79
2022-11-17T01:01:32.840Z,79.88
2022-11-17T01:02:32.775Z,80.23
2022-11-17T01:03:33.153Z,79.93
2022-11-17T01:04:32.790Z,79.93
2022-11-17T01:05:33.260Z,80.99
2022-11-17T01:06:32.735Z,80.16
2022-11-17T01:07:32.875Z,79.82
2022-11-17T01:08:32.707Z,79.96
2022-11-17T01:09:32.763Z,80.79
2022-11-17T01:10:32.685Z,80.33
2022-11-17T01:11:32.671Z,80.65
2022-11-17T01:12:32.765Z,80.40
2022-11-17T01:13:32.963Z,80.09
2022-11-17T01:14:32.653Z,80.09
2022-11-17T01:15:32.666Z,79.79
2022-11-17T01:16:32.618Z,80.02
2022-11-17T01:17:32.651Z,79.82
2022-11-17T01:18:32.611Z,80.95
2022-11-17T01:19:32.634Z,80.02
2022-11-17T01:20:32.631Z,79.88
2022-11-17T01:21:32.574Z,79.72
2022-11-17T01:22:32.648Z,79.82
2022-11-17T01:23:32.830Z,79.82
2022-11-17T01:24:32.525Z,79.93
2022-11-17T01:25:32.514Z,79.82
2022-11-17T01:26:32.505Z,79.93
2022-11-17T01:27:32.538Z,79.93
2022-11-17T01:28:32.600Z,79.93
2022-11-17T01:29:32.491Z,80.02
2022-11-17T01:30:32.460Z,79.82
2022-11-17T01:31:32.448Z,80.13
2022-11-17T01:32:32.496Z,79.93
2022-11-17T01:33:32.685Z,79.96
2022-11-17T01:34:32.420Z,80.37
2022-11-17T01:35:32.449Z,80.99
2022-11-17T01:36:32.394Z,81.40
2022-11-17T01:37:32.445Z,80.95
2022-11-17T01:38:32.380Z,79.82
2022-11-17T01:39:32.361Z,80.02
2022-11-17T01:40:32.354Z,79.99
2022-11-17T01:41:32.378Z,79.47
2022-11-17T01:42:32.373Z,79.79
2022-11-17T01:43:32.566Z,79.47
2022-11-17T01:44:32.440Z,79.79
2022-11-17T01:45:32.294Z,80.02
2022-11-17T01:46:32.298Z,80.33
2022-11-17T01:47:32.355Z,79.61
2022-11-17T01:48:32.256Z,80.58
2022-11-17T01:49:32.262Z,80.99
2022-11-17T01:50:32.235Z,80.68
2022-11-17T01:51:32.276Z,80.27
2022-11-17T01:52:32.276Z,80.06
2022-11-17T01:53:32.513Z,80.37
2022-11-17T01:54:32.192Z,79.86
2022-11-17T01:55:32.230Z,79.96
2022-11-17T01:56:32.168Z,79.93
2022-11-17T01:57:32.210Z,79.93
2022-11-17T01:58:32.208Z,79.82
2022-11-17T01:59:32.183Z,80.06
2022-11-17T02:00:32.266Z,80.06
2022-11-17T02:01:32.223Z,80.06
2022-11-17T02:02:32.105Z,79.86
2022-11-17T02:03:32.304Z,79.96
2022-11-17T02:04:32.126Z,80.27
2022-11-17T02:05:32.094Z,80.06
2022-11-17T02:06:32.064Z,79.82
2022-11-17T02:07:32.106Z,79.72
2022-11-17T02:08:32.045Z,79.55
2022-11-17T02:09:32.027Z,79.86
2022-11-17T02:10:32.105Z,79.90
2022-11-17T02:11:32.085Z,80.23
2022-11-17T02:12:32.001Z,79.72
2022-11-17T02:13:32.136Z,79.72
2022-11-17T02:14:31.977Z,79.72
2022-11-17T02:15:32.008Z,79.41
2022-11-17T02:16:31.966Z,78.69
2022-11-17T02:17:31.957Z,79.30
2022-11-17T02:18:31.932Z,79.16
2022-11-17T02:19:31.921Z,79.06
2022-11-17T02:20:31.951Z,78.86
2022-11-17T02:21:31.980Z,78.58
2022-11-17T02:22:31.885Z,79.27
2022-11-17T02:23:32.108Z,79.06
2022-11-17T02:24:31.876Z,78.86
2022-11-17T02:25:31.850Z,79.06
2022-11-17T02:26:31.842Z,78.65
2022-11-17T02:27:31.827Z,78.96
2022-11-17T02:28:31.899Z,78.58
2022-11-17T02:29:31.805Z,78.96
2022-11-17T02:30:31.802Z,79.10
2022-11-17T02:31:31.809Z,79.27
2022-11-17T02:32:31.786Z,79.00
2022-11-17T02:33:31.956Z,79.27
2022-11-17T02:34:31.768Z,79.16
2022-11-17T02:35:31.744Z,78.65
2022-11-17T02:36:31.738Z,78.89
2022-11-17T02:37:31.758Z,79.44
2022-11-17T02:38:31.707Z,79.72
2022-11-17T02:39:31.760Z,79.41
2022-11-17T02:40:31.706Z,79.30
2022-11-17T02:41:31.679Z,79.86
2022-11-17T02:42:31.677Z,80.06
2022-11-17T02:43:31.912Z,79.72
2022-11-17T02:44:31.706Z,79.79
2022-11-17T02:45:31.636Z,78.89
2022-11-17T02:46:31.638Z,79.30
2022-11-17T02:47:31.606Z,79.20
2022-11-17T02:48:31.755Z,79.72
2022-11-17T02:49:31.629Z,79.27
2022-11-17T02:50:31.570Z,78.65
2022-11-17T02:51:31.576Z,79.61
2022-11-17T02:52:31.571Z,79.41
2022-11-17T02:53:31.835Z,79.72
2022-11-17T02:54:31.548Z,79.79
2022-11-17T02:55:31.515Z,79.58
2022-11-17T02:56:31.507Z,79.30
2022-11-17T02:57:31.494Z,79.30
2022-11-17T02:58:31.510Z,79.96
2022-11-17T02:59:31.533Z,80.02
2022-11-17T03:00:31.461Z,80.13
2022-11-17T03:01:31.502Z,80.02
2022-11-17T03:02:31.442Z,80.16
2022-11-17T03:03:31.431Z,80.16
2022-11-17T03:04:31.581Z,80.27
2022-11-17T03:05:31.465Z,80.27
2022-11-17T03:06:31.393Z,79.86
2022-11-17T03:07:31.445Z,79.86
2022-11-17T03:08:33.138Z,79.93
2022-11-17T03:09:31.360Z,79.93
2022-11-17T03:10:31.389Z,79.96
2022-11-17T03:11:31.337Z,80.06
2022-11-17T03:12:31.385Z,80.27
2022-11-17T03:13:31.318Z,79.96
2022-11-17T03:14:31.305Z,80.89
2022-11-17T03:15:31.295Z,79.96
2022-11-17T03:16:31.309Z,80.58
2022-11-17T03:17:31.316Z,80.06
2022-11-17T03:18:31.262Z,80.06
2022-11-17T03:19:31.249Z,80.16
2022-11-17T03:20:31.353Z,80.06
2022-11-17T03:21:31.280Z,80.16
2022-11-17T03:22:31.256Z,80.06
2022-11-17T03:23:31.201Z,80.16
2022-11-17T03:24:31.287Z,79.96
2022-11-17T03:25:31.355Z,80.06
2022-11-17T03:26:31.170Z,79.82
2022-11-17T03:27:31.170Z,80.02
2022-11-17T03:28:31.182Z,79.93
2022-11-17T03:29:31.134Z,79.86
2022-11-17T03:30:36.245Z,79.75
2022-11-17T03:31:31.120Z,79.72
2022-11-17T03:32:31.101Z,79.93
2022-11-17T03:33:31.106Z,79.65
2022-11-17T03:34:31.114Z,80.06
2022-11-17T03:35:31.067Z,79.79
2022-11-17T03:36:31.224Z,81.03
2022-11-17T03:37:31.069Z,80.62
2022-11-17T03:38:31.086Z,80.06
2022-11-17T03:39:31.031Z,79.75
2022-11-17T03:40:31.071Z,79.96
2022-11-17T03:41:30.999Z,79.75
2022-11-17T03:42:30.989Z,80.06
2022-11-17T03:43:30.979Z,79.82
2022-11-17T03:44:31.014Z,80.06
2022-11-17T03:45:30.960Z,80.20
2022-11-17T03:46:30.988Z,80.47
2022-11-17T03:47:30.932Z,79.96
2022-11-17T03:48:30.928Z,80.16
2022-11-17T03:49:30.915Z,80.10
2022-11-17T03:50:30.954Z,80.06
2022-11-17T03:51:30.896Z,79.96
2022-11-17T03:52:30.989Z,79.96
2022-11-17T03:53:30.946Z,79.72
2022-11-17T03:54:30.863Z,79.75
2022-11-17T03:55:30.848Z,79.86
2022-11-17T03:56:30.854Z,79.75
2022-11-17T03:57:30.866Z,80.00
2022-11-17T03:58:30.811Z,79.90
2022-11-17T03:59:30.811Z,80.10
2022-11-17T04:00:30.786Z,79.96
2022-11-17T04:01:30.868Z,79.75
2022-11-17T04:02:30.766Z,79.90
2022-11-17T04:03:30.758Z,80.00
2022-11-17T04:04:30.745Z,80.10
2022-11-17T04:05:30.744Z,79.79
2022-11-17T04:06:30.770Z,80.27
2022-11-17T04:07:30.776Z,79.86
2022-11-17T04:08:30.930Z,79.38
2022-11-17T04:09:30.687Z,80.24
2022-11-17T04:10:30.729Z,80.10
2022-11-17T04:11:30.679Z,80.00
2022-11-17T04:12:30.701Z,80.10
2022-11-17T04:13:30.663Z,80.10
2022-11-17T04:14:30.640Z,80.00
2022-11-17T04:15:30.626Z,80.20
2022-11-17T04:16:30.610Z,79.79
2022-11-17T04:17:30.696Z,79.90
2022-11-17T04:18:30.648Z,80.10
2022-11-17T04:19:30.583Z,79.90
2022-11-17T04:20:30.621Z,79.79
2022-11-17T04:21:30.557Z,79.90
2022-11-17T04:22:30.603Z,79.86
2022-11-17T04:23:30.542Z,79.27
2022-11-17T04:24:30.638Z,79.75
2022-11-17T04:25:30.519Z,79.24
2022-11-17T04:26:30.531Z,79.03
2022-11-17T04:27:30.494Z,78.72
2022-11-17T04:28:30.526Z,79.03
2022-11-17T04:29:30.474Z,78.72
2022-11-17T04:30:30.455Z,78.76
2022-11-17T04:31:30.495Z,79.38
2022-11-17T04:32:30.433Z,79.27
2022-11-17T04:33:30.418Z,79.34
2022-11-17T04:34:30.470Z,78.89
2022-11-17T04:35:30.488Z,79.14
2022-11-17T04:36:30.387Z,79.34
2022-11-17T04:37:30.390Z,79.07
2022-11-17T04:38:30.375Z,79.27
2022-11-17T04:39:30.350Z,79.07
2022-11-17T04:40:30.372Z,79.72
2022-11-17T04:41:30.379Z,79.93
2022-11-17T04:42:30.368Z,79.79
2022-11-17T04:43:30.319Z,79.83
2022-11-17T04:44:30.298Z,79.72
2022-11-17T04:45:30.304Z,79.83
2022-11-17T04:46:30.291Z,80.14
2022-11-17T04:47:30.305Z,79.93
2022-11-17T04:48:30.262Z,80.14
2022-11-17T04:49:30.283Z,79.83
2022-11-17T04:50:30.227Z,79.58
2022-11-17T04:51:30.226Z,79.27
2022-11-17T04:52:30.264Z,79.17
2022-11-17T04:53:30.209Z,79.58
2022-11-17T04:54:30.245Z,79.17
2022-11-17T04:55:30.176Z,79.38
2022-11-17T04:56:30.453Z,79.07
2022-11-17T04:57:30.167Z,79.83
2022-11-17T04:58:30.190Z,79.83
2022-11-17T04:59:30.132Z,80.24
2022-11-17T05:00:30.200Z,79.93
2022-11-17T05:01:30.108Z,80.04
2022-11-17T05:02:30.178Z,79.93
2022-11-17T05:03:30.143Z,80.14
2022-11-17T05:04:30.076Z,79.79
2022-11-17T05:05:30.126Z,79.27
2022-11-17T05:06:30.114Z,79.27
2022-11-17T05:07:30.202Z,78.97
2022-11-17T05:08:30.037Z,79.17
2022-11-17T05:09:30.062Z,79.27
2022-11-17T05:10:30.008Z,79.93
2022-11-17T05:11:30.023Z,80.04
2022-11-17T05:12:30.101Z,79.79
2022-11-17T05:13:29.979Z,79.41
2022-11-17T05:14:30.027Z,79.72
2022-11-17T05:15:29.971Z,80.38
2022-11-17T05:16:29.942Z,80.28
2022-11-17T05:17:29.988Z,79.97
2022-11-17T05:18:29.922Z,80.86
2022-11-17T05:19:29.915Z,80.04
2022-11-17T05:20:29.962Z,80.14
2022-11-17T05:21:29.888Z,80.14
2022-11-17T05:22:29.877Z,79.93
2022-11-17T05:23:29.879Z,80.14
2022-11-17T05:24:29.897Z,80.04
2022-11-17T05:25:29.892Z,80.38
2022-11-17T05:26:29.868Z,80.76
2022-11-17T05:27:29.817Z,80.55
2022-11-17T05:28:29.985Z,80.10
2022-11-17T05:29:29.803Z,80.04
2022-11-17T05:30:29.786Z,79.69
2022-11-17T05:31:29.785Z,79.90
2022-11-17T05:32:29.773Z,79.55
2022-11-17T05:33:34.927Z,79.34
2022-11-17T05:34:30.276Z,78.86
2022-11-17T05:35:29.771Z,78.86
2022-11-17T05:36:29.724Z,79.41
2022-11-17T05:37:29.721Z,80.18
2022-11-17T05:38:29.708Z,80.14
2022-11-17T05:39:29.766Z,80.14
2022-11-17T05:40:29.685Z,79.79
2022-11-17T05:41:29.660Z,79.72
2022-11-17T05:42:29.651Z,80.34
2022-11-17T05:43:29.644Z,80.14
2022-11-17T05:44:29.694Z,79.93
2022-11-17T05:45:29.632Z,79.83
2022-11-17T05:46:29.622Z,79.83
2022-11-17T05:47:29.648Z,79.62
2022-11-17T05:48:29.597Z,80.18
2022-11-17T05:49:29.667Z,80.18
2022-11-17T05:50:29.560Z,80.34
2022-11-17T05:51:29.565Z,80.34
2022-11-17T05:52:29.595Z,79.83
2022-11-17T05:53:29.534Z,80.14
2022-11-17T05:54:29.540Z,79.86
2022-11-17T05:55:29.519Z,80.58
2022-11-17T05:56:29.546Z,80.18
2022-11-17T05:57:29.540Z,80.11
2022-11-17T05:58:29.493Z,80.38
2022-11-17T05:59:29.523Z,81.00
2022-11-17T06:00:29.561Z,81.31
2022-11-17T06:01:29.451Z,80.28
2022-11-17T06:02:29.429Z,80.28
2022-11-17T06:03:29.428Z,80.58
2022-11-17T06:04:29.532Z,80.28
2022-11-17T06:05:29.536Z,80.14
2022-11-17T06:06:29.389Z,79.83
2022-11-17T06:07:29.424Z,80.18
2022-11-17T06:08:29.379Z,80.07
2022-11-17T06:09:29.412Z,80.14
2022-11-17T06:10:29.361Z,80.07
2022-11-17T06:11:29.368Z,80.07
2022-11-17T06:12:29.317Z,81.00
2022-11-17T06:13:29.315Z,81.14
2022-11-17T06:14:29.295Z,81.10
2022-11-17T06:15:29.339Z,81.00
2022-11-17T06:16:29.382Z,80.48
2022-11-17T06:17:29.314Z,79.97
2022-11-17T06:18:29.258Z,80.73
2022-11-17T06:19:29.251Z,80.69
2022-11-17T06:20:29.235Z,80.65
2022-11-17T06:21:43.182Z,80.14
2022-11-17T06:22:29.281Z,80.14
2022-11-17T06:23:29.201Z,80.04
2022-11-17T06:24:29.217Z,79.93
2022-11-17T06:25:29.189Z,79.72
2022-11-17T06:26:29.169Z,80.04
2022-11-17T06:27:29.235Z,80.38
2022-11-17T06:28:29.170Z,80.07
2022-11-17T06:29:29.138Z,80.18
2022-11-17T06:30:29.128Z,80.07
2022-11-17T06:31:29.135Z,80.28
2022-11-17T06:32:29.217Z,80.28
2022-11-17T06:33:29.134Z,81.31
2022-11-17T06:34:29.126Z,80.21
2022-11-17T06:35:29.127Z,81.00
2022-11-17T06:36:29.077Z,80.96
2022-11-17T06:37:29.050Z,79.93
2022-11-17T06:38:29.046Z,80.04
2022-11-17T06:39:29.060Z,80.38
2022-11-17T06:40:29.058Z,80.14
2022-11-17T06:41:29.005Z,80.04
2022-11-17T06:42:29.009Z,79.72
2022-11-17T06:43:29.043Z,80.18
2022-11-17T06:44:28.983Z,79.93
2022-11-17T06:45:28.975Z,80.24
2022-11-17T06:46:28.953Z,80.04
2022-11-17T06:47:28.940Z,79.72
2022-11-17T06:48:29.051Z,79.52
2022-11-17T06:49:28.967Z,79.90
2022-11-17T06:50:28.926Z,79.38
2022-11-17T06:51:28.923Z,79.38
2022-11-17T06:52:28.938Z,79.62
2022-11-17T06:53:28.904Z,79.72
2022-11-17T06:54:28.879Z,79.83
2022-11-17T06:55:28.925Z,79.97
2022-11-17T06:56:28.870Z,80.18
2022-11-17T06:57:28.901Z,79.76
2022-11-17T06:58:28.836Z,80.28
2022-11-17T06:59:28.837Z,79.86
2022-11-17T07:00:28.958Z,79.93
2022-11-17T07:01:28.837Z,79.93
2022-11-17T07:02:28.847Z,79.83
2022-11-17T07:03:28.828Z,79.72
2022-11-17T07:04:28.832Z,79.62
2022-11-17T07:05:28.835Z,80.14
2022-11-17T07:06:28.753Z,79.55
2022-11-17T07:07:28.914Z,80.07
2022-11-17T07:08:28.746Z,80.69
2022-11-17T07:09:28.808Z,80.07
2022-11-17T07:10:28.802Z,80.58
2022-11-17T07:11:28.708Z,80.48
2022-11-17T07:12:28.737Z,80.04
2022-11-17T07:13:28.677Z,80.14
2022-11-17T07:14:28.681Z,79.93
2022-11-17T07:15:28.701Z,79.93
2022-11-17T07:16:28.644Z,79.52
2022-11-17T07:17:28.691Z,79.93
2022-11-17T07:18:28.750Z,79.69
2022-11-17T07:19:28.714Z,78.97
2022-11-17T07:20:28.772Z,79.48
2022-11-17T07:21:28.604Z,79.27
2022-11-17T07:22:28.639Z,78.80
2022-11-17T07:23:28.593Z,79.52
2022-11-17T07:24:28.550Z,79.52
2022-11-17T07:25:28.558Z,79.79
2022-11-17T07:26:28.572Z,79.38
2022-11-17T07:27:28.557Z,79.27
2022-11-17T07:28:28.517Z,78.83
2022-11-17T07:29:28.569Z,78.21
2022-11-17T07:30:28.931Z,78.00
2022-11-17T07:31:28.536Z,78.11
2022-11-17T07:32:28.472Z,78.21
2022-11-17T07:33:28.463Z,78.41
2022-11-17T07:34:28.440Z,77.90
2022-11-17T07:35:28.494Z,78.41
2022-11-17T07:36:28.547Z,78.31
2022-11-17T07:37:28.476Z,78.21
2022-11-17T07:38:28.412Z,78.52
2022-11-17T07:39:28.397Z,78.24
2022-11-17T07:40:28.387Z,78.34
2022-11-17T07:41:28.451Z,78.76
2022-11-17T07:42:28.360Z,78.86
2022-11-17T07:43:28.369Z,78.76
2022-11-17T07:44:28.334Z,78.76
2022-11-17T07:45:31.819Z,78.86
2022-11-17T07:46:28.360Z,78.83
2022-11-17T07:47:28.349Z,78.83
2022-11-17T07:48:28.296Z,78.34
2022-11-17T07:49:28.303Z,78.45
2022-11-17T07:50:28.266Z,78.90
2022-11-17T07:51:28.315Z,79.90
2022-11-17T07:52:28.362Z,79.69
2022-11-17T07:53:28.245Z,79.07
2022-11-17T07:54:28.223Z,79.27
2022-11-17T07:55:28.461Z,79.38
2022-11-17T07:56:28.439Z,79.07
2022-11-17T07:57:28.306Z,78.76
2022-11-17T07:58:28.263Z,79.41
2022-11-17T07:59:28.186Z,79.79
2022-11-17T08:00:28.158Z,79.48
2022-11-17T08:01:28.314Z,79.27
2022-11-17T08:02:28.143Z,79.17
2022-11-17T08:03:28.284Z,78.66
2022-11-17T08:04:28.131Z,78.86
2022-11-17T08:05:28.155Z,78.83
2022-11-17T08:06:28.096Z,78.72
2022-11-17T08:07:28.196Z,78.28
2022-11-17T08:08:28.228Z,77.76
2022-11-17T08:09:28.072Z,77.86
2022-11-17T08:10:28.114Z,77.80
2022-11-17T08:11:28.046Z,78.11
2022-11-17T08:12:28.032Z,78.93
2022-11-17T08:13:28.026Z,78.52
2022-11-17T08:14:28.033Z,78.31
2022-11-17T08:15:28.013Z,78.52
2022-11-17T08:16:28.230Z,78.72
2022-11-17T08:17:27.997Z,78.72
2022-11-17T08:18:27.969Z,78.52
2022-11-17T08:19:28.074Z,78.52
2022-11-17T08:20:27.940Z,79.07
2022-11-17T08:21:27.988Z,78.86
2022-11-17T08:22:27.944Z,79.03
2022-11-17T08:23:27.912Z,78.72
2022-11-17T08:24:28.027Z,78.14
2022-11-17T08:25:27.912Z,77.97
2022-11-17T08:26:27.918Z,77.66
2022-11-17T08:27:27.911Z,77.55
2022-11-17T08:28:27.860Z,77.90
2022-11-17T08:29:27.848Z,78.52
2022-11-17T08:30:27.834Z,78.62
2022-11-17T08:31:27.884Z,78.17
2022-11-17T08:32:27.808Z,78.44
2022-11-17T08:33:27.862Z,78.14
2022-11-17T08:34:27.784Z,77.83
2022-11-17T08:35:29.776Z,78.07
2022-11-17T08:36:27.786Z,78.24
2022-11-17T08:37:27.802Z,77.97
2022-11-17T08:38:27.755Z,78.44
2022-11-17T08:39:27.745Z,77.25
2022-11-17T08:40:27.932Z,78.52
2022-11-17T08:41:27.772Z,79.20
2022-11-17T08:42:27.721Z,79.10
2022-11-17T08:43:27.726Z,79.55
2022-11-17T08:44:27.673Z,79.34
2022-11-17T08:45:27.677Z,79.61
2022-11-17T08:46:27.652Z,79.24
2022-11-17T08:47:27.716Z,79.86
2022-11-17T08:48:27.647Z,80.02
2022-11-17T08:49:27.659Z,80.02
2022-11-17T08:50:27.611Z,79.82
2022-11-17T08:51:27.647Z,79.65
2022-11-17T08:52:27.628Z,80.68
2022-11-17T08:53:27.633Z,79.93
2022-11-17T08:54:27.560Z,80.23
2022-11-17T08:55:27.645Z,80.02
2022-11-17T08:56:27.726Z,79.93
2022-11-17T08:57:27.556Z,80.13
2022-11-17T08:58:27.513Z,79.93
2022-11-17T08:59:27.513Z,80.27
2022-11-17T09:00:27.483Z,80.89
2022-11-17T09:01:27.608Z,80.58
2022-11-17T09:02:27.470Z,80.68
2022-11-17T09:03:27.470Z,80.82
2022-11-17T09:04:27.447Z,81.20
2022-11-17T09:05:27.452Z,81.09
2022-11-17T09:06:27.462Z,81.30
2022-11-17T09:07:32.040Z,80.68
2022-11-17T09:08:57.120Z,81.05
2022-11-17T09:09:28.468Z,81.16
2022-11-17T09:10:27.383Z,81.05
2022-11-17T09:11:27.362Z,81.05
2022-11-17T09:12:27.493Z,80.99
2022-11-17T09:13:27.370Z,81.47
2022-11-17T09:14:27.373Z,81.05
2022-11-17T09:15:27.379Z,81.23
2022-11-17T09:16:27.323Z,81.05
2022-11-17T09:17:27.341Z,81.30
2022-11-17T09:18:27.400Z,81.37
2022-11-17T09:19:27.279Z,82.50
2022-11-17T09:20:27.340Z,81.23
2022-11-17T09:21:27.382Z,80.71
2022-11-17T09:22:27.363Z,80.81
2022-11-17T09:23:27.308Z,81.47
2022-11-17T09:24:27.375Z,81.05
2022-11-17T09:25:27.304Z,80.65
2022-11-17T09:26:27.282Z,80.85
2022-11-17T09:27:27.260Z,81.43
2022-11-17T09:28:27.376Z,81.05
2022-11-17T09:29:27.308Z,80.85
2022-11-17T09:30:27.359Z,80.89
2022-11-17T09:31:27.249Z,81.71
2022-11-17T09:32:27.223Z,81.37
2022-11-17T09:33:27.214Z,81.16
2022-11-17T09:34:27.245Z,81.37
2022-11-17T09:35:27.181Z,81.37
2022-11-17T09:36:27.318Z,81.23
2022-11-17T09:37:27.275Z,80.67
2022-11-17T09:38:27.182Z,80.77
2022-11-17T09:39:27.136Z,79.85
2022-11-17T09:40:27.118Z,80.16
2022-11-17T09:41:27.108Z,79.85
2022-11-17T09:42:27.203Z,79.79
2022-11-17T09:43:27.095Z,80.61
2022-11-17T09:44:27.323Z,79.88
2022-11-17T09:45:27.099Z,79.75
2022-11-17T09:46:27.130Z,80.19
2022-11-17T09:47:27.016Z,80.91
2022-11-17T09:48:40.773Z,80.54
2022-11-17T09:49:27.029Z,81.05
2022-11-17T09:50:27.106Z,81.05
2022-11-17T09:51:27.040Z,80.40
2022-11-17T09:52:26.950Z,81.02
2022-11-17T09:53:26.984Z,80.91
2022-11-17T09:54:27.050Z,81.02
2022-11-17T09:55:31.260Z,81.12
2022-11-17T09:56:26.944Z,81.12
2022-11-17T09:57:26.905Z,80.81
2022-11-17T09:58:26.989Z,82.05
2022-11-17T09:59:26.933Z,82.29
2022-11-17T10:00:26.945Z,82.05
2022-11-17T10:01:26.815Z,82.77
2022-11-17T10:02:26.924Z,82.60
2022-11-17T10:03:26.817Z,82.56
2022-11-17T10:04:27.579Z,82.87
2022-11-17T10:05:26.771Z,82.05
2022-11-17T10:06:26.796Z,82.25
2022-11-17T10:07:26.823Z,81.98
2022-11-17T10:08:26.745Z,82.09
2022-11-17T10:09:26.742Z,81.98
2022-11-17T10:10:26.709Z,82.91
2022-11-17T10:11:26.766Z,82.35
2022-11-17T10:12:26.705Z,82.87
2022-11-17T10:13:26.675Z,82.87
2022-11-17T10:14:26.725Z,82.25
2022-11-17T10:15:26.652Z,82.70
2022-11-17T10:16:26.758Z,83.12
2022-11-17T10:17:26.634Z,83.53
2022-11-17T10:18:26.663Z,82.81
2022-11-17T10:19:26.706Z,83.32
2022-11-17T10:20:26.636Z,84.25
2022-11-17T10:21:26.622Z,84.35
2022-11-17T10:22:26.577Z,83.73
2022-11-17T10:23:26.581Z,84.14
2022-11-17T10:24:26.594Z,84.00
2022-11-17T10:25:26.549Z,83.59
2022-11-17T10:26:26.560Z,83.70
2022-11-17T10:27:26.564Z,83.39
2022-11-17T10:28:26.507Z,83.39
2022-11-17T10:29:26.544Z,83.18
2022-11-17T10:30:26.484Z,83.70
2022-11-17T10:31:27.014Z,83.39
2022-11-17T10:32:26.622Z,83.59
2022-11-17T10:33:26.458Z,84.31
2022-11-17T10:34:30.368Z,84.31
2022-11-17T10:35:27.446Z,83.39
2022-11-17T10:36:26.422Z,82.67
2022-11-17T10:37:26.425Z,82.97
2022-11-17T10:38:26.445Z,83.63
2022-11-17T10:39:26.387Z,84.00
2022-11-17T10:40:26.759Z,84.00
2022-11-17T10:41:26.366Z,84.00
2022-11-17T10:42:26.360Z,84.27
2022-11-17T10:43:26.361Z,83.39
2022-11-17T10:44:26.330Z,83.90
2022-11-17T10:45:26.323Z,83.90
2022-11-17T10:46:27.963Z,84.52
2022-11-17T10:47:26.345Z,84.00
2022-11-17T10:48:26.318Z,84.31
2022-11-17T10:49:26.323Z,84.00
2022-11-17T10:50:26.262Z,83.39
2022-11-17T10:51:26.254Z,84.17
2022-11-17T10:52:26.282Z,83.59
2022-11-17T10:53:26.236Z,84.11
2022-11-17T10:54:26.275Z,83.90
2022-11-17T10:55:27.058Z,84.11
2022-11-17T10:56:26.202Z,84.00
2022-11-17T10:57:26.255Z,84.58
2022-11-17T10:58:26.221Z,83.39
2022-11-17T10:59:26.213Z,84.11
2022-11-17T11:00:26.171Z,83.76
2022-11-17T11:01:26.329Z,83.90
2022-11-17T11:02:26.185Z,83.86
2022-11-17T11:03:26.118Z,83.70
2022-11-17T11:04:26.125Z,84.00
2022-11-17T11:05:26.145Z,84.27
2022-11-17T11:06:26.088Z,84.58
2022-11-17T11:07:26.232Z,84.52
2022-11-17T11:08:26.119Z,84.48
2022-11-17T11:09:26.054Z,84.03
2022-11-17T11:10:26.142Z,83.97
2022-11-17T11:11:26.150Z,83.14
2022-11-17T11:12:27.342Z,83.49
2022-11-17T11:13:26.063Z,84.52
2022-11-17T11:14:26.177Z,84.27
2022-11-17T11:15:26.067Z,84.52
2022-11-17T11:16:26.022Z,84.52
2022-11-17T11:17:26.028Z,84.42
2022-11-17T11:18:26.030Z,84.42
2022-11-17T11:19:25.989Z,84.93
2022-11-17T11:20:25.946Z,85.10
2022-11-17T11:21:25.960Z,84.48
2022-11-17T11:22:25.967Z,84.48
2022-11-17T11:23:25.897Z,84.48
2022-11-17T11:24:25.935Z,84.17
2022-11-17T11:25:25.877Z,83.97
2022-11-17T11:26:25.872Z,84.07
2022-11-17T11:27:25.853Z,84.58
2022-11-17T11:28:25.854Z,83.80
2022-11-17T11:29:25.890Z,84.48
2022-11-17T11:30:25.820Z,84.27
2022-11-17T11:31:25.803Z,84.48
2022-11-17T11:32:25.958Z,84.38
2022-11-17T11:33:25.785Z,84.38
2022-11-17T11:34:26.131Z,84.48
2022-11-17T11:35:25.825Z,84.38
2022-11-17T11:36:25.777Z,84.38
2022-11-17T11:37:25.795Z,84.31
2022-11-17T11:38:25.854Z,84.58
2022-11-17T11:39:25.722Z,84.31
2022-11-17T11:40:25.765Z,85.20
2022-11-17T11:41:25.693Z,84.83
2022-11-17T11:42:25.690Z,85.38
2022-11-17T11:43:25.727Z,85.34
2022-11-17T11:44:25.676Z,85.65
2022-11-17T11:45:25.692Z,85.24
2022-11-17T11:46:25.651Z,86.06
2022-11-17T11:47:25.698Z,85.86
2022-11-17T11:48:25.633Z,84.93
2022-11-17T11:49:25.607Z,85.44
2022-11-17T11:50:25.642Z,86.13
2022-11-17T11:51:25.629Z,85.24
2022-11-17T11:52:25.599Z,85.71
2022-11-17T11:53:25.568Z,85.03
2022-11-17T11:54:25.618Z,85.96
2022-11-17T11:55:25.541Z,86.37
2022-11-17T11:56:25.575Z,85.03
2022-11-17T11:57:25.519Z,86.27
2022-11-17T11:58:25.516Z,85.82
2022-11-17T11:59:25.496Z,85.20
2022-11-17T12:00:25.493Z,85.06
2022-11-17T12:01:25.488Z,84.89
2022-11-17T12:02:25.525Z,85.10
2022-11-17T12:03:25.490Z,86.23
2022-11-17T12:04:25.494Z,85.41
2022-11-17T12:05:25.429Z,85.71
2022-11-17T12:06:25.478Z,85.44
2022-11-17T12:07:26.073Z,85.71
2022-11-17T12:08:25.432Z,85.61
2022-11-17T12:09:25.444Z,85.30
2022-11-17T12:10:25.427Z,85.51
2022-11-17T12:11:25.360Z,85.41
2022-11-17T12:12:25.355Z,85.20
2022-11-17T12:13:25.336Z,85.20
2022-11-17T12:14:25.339Z,85.41
2022-11-17T12:15:25.375Z,85.61
2022-11-17T12:16:25.351Z,85.26
2022-11-17T12:17:25.331Z,84.81
2022-11-17T12:18:25.293Z,84.85
2022-11-17T12:19:25.269Z,84.48
2022-11-17T12:20:25.310Z,85.41
2022-11-17T12:21:25.268Z,85.41
2022-11-17T12:22:25.281Z,85.61
2022-11-17T12:23:25.281Z,86.19
2022-11-17T12:24:25.267Z,85.68
2022-11-17T12:25:25.250Z,85.06
2022-11-17T12:26:25.198Z,84.95
2022-11-17T12:27:25.195Z,84.75
2022-11-17T12:28:25.216Z,84.38
2022-11-17T12:29:25.184Z,84.89
2022-11-17T12:30:25.217Z,86.08
2022-11-17T12:31:25.136Z,85.16
2022-11-17T12:32:25.134Z,85.26
2022-11-17T12:33:25.137Z,85.20
2022-11-17T12:34:25.112Z,85.06
2022-11-17T12:35:25.157Z,84.64
2022-11-17T12:36:30.065Z,84.69
2022-11-17T12:37:25.126Z,86.19
2022-11-17T12:38:25.074Z,85.26
2022-11-17T12:39:25.048Z,84.75
2022-11-17T12:40:25.185Z,85.16
2022-11-17T12:41:25.053Z,85.16
2022-11-17T12:42:25.020Z,84.54
2022-11-17T12:43:25.053Z,84.64
2022-11-17T12:44:25.011Z,84.95
2022-11-17T12:45:25.092Z,85.06
2022-11-17T12:46:25.022Z,84.85
2022-11-17T12:47:25.051Z,84.75
2022-11-17T12:48:34.023Z,84.95
2022-11-17T12:49:25.977Z,84.81
2022-11-17T12:50:24.979Z,84.50
2022-11-17T12:51:24.916Z,84.16
2022-11-17T12:52:24.926Z,84.56